sensor_id;sensor_type;location;lat;lon;timestamp;P1;durP1;ratioP1;P2;durP2;ratioP2
4889;SDS011;2459;42.268;23.112;2022-12-20T00:01:28;33.93;;;9.73;;
4889;SDS011;2459;42.268;23.112;2022-12-20T00:03:55;18.07;;;10.00;;
4889;SDS011;2459;42.268;23.112;2022-12-20T00:06:22;17.83;;;9.33;;
4889;SDS011;2459;42.268;23.112;2022-12-20T00:08:51;19.43;;;10.60;;
4889;SDS011;2459;42.268;23.112;2022-12-20T00:11:18;22.40;;;9.73;;
4889;SDS011;2459;42.268;23.112;2022-12-20T00:13:46;21.40;;;10.40;;
4889;SDS011;2459;42.268;23.112;2022-12-20T00:16:13;14.03;;;8.07;;
4889;SDS011;2459;42.268;23.112;2022-12-20T00:18:39;18.00;;;10.00;;
4889;SDS011;2459;42.268;23.112;2022-12-20T00:21:07;14.67;;;8.20;;
4889;SDS011;2459;42.268;23.112;2022-12-20T00:23:34;26.50;;;9.57;;
4889;SDS011;2459;42.268;23.112;2022-12-20T00:26:01;24.73;;;10.30;;
4889;SDS011;2459;42.268;23.112;2022-12-20T00:28:27;20.50;;;8.73;;
4889;SDS011;2459;42.268;23.112;2022-12-20T00:30:55;21.53;;;9.50;;
4889;SDS011;2459;42.268;23.112;2022-12-20T00:33:22;29.80;;;9.30;;
4889;SDS011;2459;42.268;23.112;2022-12-20T00:35:48;21.30;;;10.80;;
4889;SDS011;2459;42.268;23.112;2022-12-20T00:38:15;24.97;;;10.90;;
4889;SDS011;2459;42.268;23.112;2022-12-20T00:40:41;23.30;;;12.30;;
4889;SDS011;2459;42.268;23.112;2022-12-20T00:43:07;26.83;;;12.20;;
4889;SDS011;2459;42.268;23.112;2022-12-20T00:45:34;24.10;;;11.50;;
4889;SDS011;2459;42.268;23.112;2022-12-20T00:48:02;29.67;;;12.03;;
4889;SDS011;2459;42.268;23.112;2022-12-20T00:50:28;23.40;;;9.93;;
4889;SDS011;2459;42.268;23.112;2022-12-20T00:52:55;27.87;;;12.47;;
4889;SDS011;2459;42.268;23.112;2022-12-20T00:55:21;21.90;;;10.00;;
4889;SDS011;2459;42.268;23.112;2022-12-20T00:57:48;24.67;;;10.17;;
4889;SDS011;2459;42.268;23.112;2022-12-20T01:00:14;25.67;;;12.23;;
4889;SDS011;2459;42.268;23.112;2022-12-20T01:02:41;24.53;;;9.43;;
4889;SDS011;2459;42.268;23.112;2022-12-20T01:05:09;67.77;;;24.27;;
4889;SDS011;2459;42.268;23.112;2022-12-20T01:07:36;34.67;;;14.90;;
4889;SDS011;2459;42.268;23.112;2022-12-20T01:10:02;36.63;;;15.40;;
4889;SDS011;2459;42.268;23.112;2022-12-20T01:12:29;28.17;;;10.83;;
4889;SDS011;2459;42.268;23.112;2022-12-20T01:14:55;27.37;;;10.77;;
4889;SDS011;2459;42.268;23.112;2022-12-20T01:17:21;21.37;;;10.57;;
4889;SDS011;2459;42.268;23.112;2022-12-20T01:19:48;41.13;;;15.77;;
4889;SDS011;2459;42.268;23.112;2022-12-20T01:22:16;145.37;;;47.37;;
4889;SDS011;2459;42.268;23.112;2022-12-20T01:24:42;87.80;;;25.77;;
4889;SDS011;2459;42.268;23.112;2022-12-20T01:27:09;47.40;;;17.87;;
4889;SDS011;2459;42.268;23.112;2022-12-20T01:29:35;45.93;;;16.80;;
4889;SDS011;2459;42.268;23.112;2022-12-20T01:32:01;30.63;;;13.73;;
4889;SDS011;2459;42.268;23.112;2022-12-20T01:34:28;20.87;;;10.90;;
4889;SDS011;2459;42.268;23.112;2022-12-20T01:36:54;30.47;;;12.83;;
4889;SDS011;2459;42.268;23.112;2022-12-20T01:39:22;31.33;;;13.80;;
4889;SDS011;2459;42.268;23.112;2022-12-20T01:41:49;28.17;;;9.90;;
4889;SDS011;2459;42.268;23.112;2022-12-20T01:47:00;18.57;;;8.47;;
4889;SDS011;2459;42.268;23.112;2022-12-20T01:49:28;18.20;;;8.43;;
4889;SDS011;2459;42.268;23.112;2022-12-20T01:51:56;19.27;;;10.23;;
4889;SDS011;2459;42.268;23.112;2022-12-20T01:54:26;15.80;;;8.00;;
4889;SDS011;2459;42.268;23.112;2022-12-20T01:56:59;20.60;;;7.83;;
4889;SDS011;2459;42.268;23.112;2022-12-20T01:59:27;18.77;;;10.30;;
4889;SDS011;2459;42.268;23.112;2022-12-20T02:01:54;5.43;;;4.70;;
4889;SDS011;2459;42.268;23.112;2022-12-20T02:04:23;16.40;;;8.57;;
4889;SDS011;2459;42.268;23.112;2022-12-20T02:06:49;11.70;;;6.17;;
4889;SDS011;2459;42.268;23.112;2022-12-20T02:09:16;18.43;;;11.17;;
4889;SDS011;2459;42.268;23.112;2022-12-20T02:11:51;17.67;;;8.97;;
4889;SDS011;2459;42.268;23.112;2022-12-20T02:14:25;18.87;;;8.80;;
4889;SDS011;2459;42.268;23.112;2022-12-20T02:17:01;17.13;;;7.20;;
4889;SDS011;2459;42.268;23.112;2022-12-20T02:19:37;16.33;;;6.77;;
4889;SDS011;2459;42.268;23.112;2022-12-20T02:22:13;23.97;;;10.17;;
4889;SDS011;2459;42.268;23.112;2022-12-20T02:24:46;18.13;;;9.53;;
4889;SDS011;2459;42.268;23.112;2022-12-20T02:27:31;9.30;;;4.07;;
4889;SDS011;2459;42.268;23.112;2022-12-20T02:30:05;15.13;;;8.47;;
4889;SDS011;2459;42.268;23.112;2022-12-20T02:32:33;10.97;;;5.27;;
4889;SDS011;2459;42.268;23.112;2022-12-20T02:35:02;22.00;;;10.60;;
4889;SDS011;2459;42.268;23.112;2022-12-20T02:37:29;22.23;;;9.20;;
4889;SDS011;2459;42.268;23.112;2022-12-20T02:39:56;23.90;;;9.40;;
4889;SDS011;2459;42.268;23.112;2022-12-20T02:42:22;18.00;;;10.07;;
4889;SDS011;2459;42.268;23.112;2022-12-20T02:44:51;23.47;;;11.30;;
4889;SDS011;2459;42.268;23.112;2022-12-20T02:47:38;32.03;;;14.50;;
4889;SDS011;2459;42.268;23.112;2022-12-20T02:50:05;21.20;;;11.93;;
4889;SDS011;2459;42.268;23.112;2022-12-20T02:52:32;19.23;;;11.07;;
4889;SDS011;2459;42.268;23.112;2022-12-20T02:54:59;20.33;;;10.00;;
4889;SDS011;2459;42.268;23.112;2022-12-20T02:57:26;19.20;;;10.70;;
4889;SDS011;2459;42.268;23.112;2022-12-20T02:59:55;21.30;;;11.40;;
4889;SDS011;2459;42.268;23.112;2022-12-20T03:02:23;17.90;;;7.83;;
4889;SDS011;2459;42.268;23.112;2022-12-20T03:04:51;20.20;;;10.17;;
4889;SDS011;2459;42.268;23.112;2022-12-20T03:07:19;29.93;;;10.80;;
4889;SDS011;2459;42.268;23.112;2022-12-20T03:09:46;13.87;;;8.17;;
4889;SDS011;2459;42.268;23.112;2022-12-20T03:12:12;32.33;;;10.63;;
4889;SDS011;2459;42.268;23.112;2022-12-20T03:14:40;19.13;;;8.70;;
4889;SDS011;2459;42.268;23.112;2022-12-20T03:17:06;20.03;;;10.83;;
4889;SDS011;2459;42.268;23.112;2022-12-20T03:19:33;20.93;;;9.90;;
4889;SDS011;2459;42.268;23.112;2022-12-20T03:22:01;28.50;;;11.97;;
4889;SDS011;2459;42.268;23.112;2022-12-20T03:24:28;23.63;;;12.00;;
4889;SDS011;2459;42.268;23.112;2022-12-20T03:26:56;21.67;;;10.47;;
4889;SDS011;2459;42.268;23.112;2022-12-20T03:29:23;22.67;;;9.27;;
4889;SDS011;2459;42.268;23.112;2022-12-20T03:31:49;19.10;;;9.70;;
4889;SDS011;2459;42.268;23.112;2022-12-20T03:34:16;34.20;;;10.37;;
4889;SDS011;2459;42.268;23.112;2022-12-20T03:36:42;23.13;;;10.57;;
4889;SDS011;2459;42.268;23.112;2022-12-20T03:39:10;20.93;;;8.93;;
4889;SDS011;2459;42.268;23.112;2022-12-20T03:41:36;23.60;;;9.20;;
4889;SDS011;2459;42.268;23.112;2022-12-20T03:44:03;20.30;;;9.97;;
4889;SDS011;2459;42.268;23.112;2022-12-20T03:46:30;26.30;;;9.20;;
4889;SDS011;2459;42.268;23.112;2022-12-20T03:48:56;25.47;;;9.83;;
4889;SDS011;2459;42.268;23.112;2022-12-20T03:51:22;26.40;;;11.03;;
4889;SDS011;2459;42.268;23.112;2022-12-20T03:53:49;16.93;;;7.60;;
4889;SDS011;2459;42.268;23.112;2022-12-20T03:56:17;17.43;;;8.50;;
4889;SDS011;2459;42.268;23.112;2022-12-20T03:58:43;34.80;;;9.23;;
4889;SDS011;2459;42.268;23.112;2022-12-20T04:01:16;22.90;;;9.77;;
4889;SDS011;2459;42.268;23.112;2022-12-20T04:03:43;24.97;;;11.67;;
4889;SDS011;2459;42.268;23.112;2022-12-20T04:06:09;31.47;;;13.97;;
4889;SDS011;2459;42.268;23.112;2022-12-20T04:08:36;19.90;;;8.70;;
4889;SDS011;2459;42.268;23.112;2022-12-20T04:11:02;22.67;;;10.50;;
4889;SDS011;2459;42.268;23.112;2022-12-20T04:13:42;31.83;;;15.40;;
4889;SDS011;2459;42.268;23.112;2022-12-20T04:16:09;27.43;;;12.27;;
4889;SDS011;2459;42.268;23.112;2022-12-20T04:18:36;39.20;;;15.10;;
4889;SDS011;2459;42.268;23.112;2022-12-20T04:21:02;31.43;;;12.77;;
4889;SDS011;2459;42.268;23.112;2022-12-20T04:23:31;57.97;;;25.80;;
4889;SDS011;2459;42.268;23.112;2022-12-20T04:25:57;24.73;;;11.40;;
4889;SDS011;2459;42.268;23.112;2022-12-20T04:28:24;46.53;;;14.10;;
4889;SDS011;2459;42.268;23.112;2022-12-20T04:30:51;22.67;;;13.10;;
4889;SDS011;2459;42.268;23.112;2022-12-20T04:33:18;29.33;;;14.20;;
4889;SDS011;2459;42.268;23.112;2022-12-20T04:35:44;30.10;;;13.20;;
4889;SDS011;2459;42.268;23.112;2022-12-20T04:38:11;25.57;;;13.90;;
4889;SDS011;2459;42.268;23.112;2022-12-20T04:40:37;24.23;;;12.33;;
4889;SDS011;2459;42.268;23.112;2022-12-20T04:43:04;30.80;;;13.23;;
4889;SDS011;2459;42.268;23.112;2022-12-20T04:45:30;35.07;;;13.40;;
4889;SDS011;2459;42.268;23.112;2022-12-20T04:47:58;30.93;;;12.30;;
4889;SDS011;2459;42.268;23.112;2022-12-20T04:50:25;19.03;;;10.47;;
4889;SDS011;2459;42.268;23.112;2022-12-20T04:52:51;20.03;;;10.00;;
4889;SDS011;2459;42.268;23.112;2022-12-20T04:55:43;25.13;;;13.00;;
4889;SDS011;2459;42.268;23.112;2022-12-20T04:58:10;31.63;;;12.60;;
4889;SDS011;2459;42.268;23.112;2022-12-20T05:00:36;27.10;;;14.77;;
4889;SDS011;2459;42.268;23.112;2022-12-20T05:03:04;25.93;;;12.20;;
4889;SDS011;2459;42.268;23.112;2022-12-20T05:05:31;35.30;;;13.40;;
4889;SDS011;2459;42.268;23.112;2022-12-20T05:08:00;31.70;;;15.90;;
4889;SDS011;2459;42.268;23.112;2022-12-20T05:10:27;55.97;;;14.27;;
4889;SDS011;2459;42.268;23.112;2022-12-20T05:12:53;44.90;;;16.90;;
4889;SDS011;2459;42.268;23.112;2022-12-20T05:15:20;34.73;;;15.73;;
4889;SDS011;2459;42.268;23.112;2022-12-20T05:17:46;39.43;;;15.07;;
4889;SDS011;2459;42.268;23.112;2022-12-20T05:20:14;38.63;;;18.90;;
4889;SDS011;2459;42.268;23.112;2022-12-20T05:22:41;35.10;;;15.90;;
4889;SDS011;2459;42.268;23.112;2022-12-20T05:25:25;43.50;;;16.90;;
4889;SDS011;2459;42.268;23.112;2022-12-20T05:28:08;50.20;;;16.20;;
4889;SDS011;2459;42.268;23.112;2022-12-20T05:30:35;31.90;;;15.30;;
4889;SDS011;2459;42.268;23.112;2022-12-20T05:33:01;35.20;;;16.40;;
4889;SDS011;2459;42.268;23.112;2022-12-20T05:35:29;36.97;;;16.80;;
4889;SDS011;2459;42.268;23.112;2022-12-20T05:37:56;39.83;;;18.20;;
4889;SDS011;2459;42.268;23.112;2022-12-20T05:40:22;33.57;;;17.03;;
4889;SDS011;2459;42.268;23.112;2022-12-20T05:42:49;66.33;;;17.33;;
4889;SDS011;2459;42.268;23.112;2022-12-20T05:45:15;41.53;;;16.23;;
4889;SDS011;2459;42.268;23.112;2022-12-20T05:47:42;54.93;;;17.43;;
4889;SDS011;2459;42.268;23.112;2022-12-20T05:50:09;33.40;;;15.83;;
4889;SDS011;2459;42.268;23.112;2022-12-20T05:52:36;53.03;;;19.00;;
4889;SDS011;2459;42.268;23.112;2022-12-20T05:55:03;48.37;;;17.50;;
4889;SDS011;2459;42.268;23.112;2022-12-20T05:57:30;34.10;;;16.83;;
4889;SDS011;2459;42.268;23.112;2022-12-20T05:59:56;40.70;;;19.87;;
4889;SDS011;2459;42.268;23.112;2022-12-20T06:02:23;52.40;;;23.07;;
4889;SDS011;2459;42.268;23.112;2022-12-20T06:04:49;41.87;;;17.07;;
4889;SDS011;2459;42.268;23.112;2022-12-20T06:07:15;47.80;;;18.50;;
4889;SDS011;2459;42.268;23.112;2022-12-20T06:09:44;90.80;;;32.43;;
4889;SDS011;2459;42.268;23.112;2022-12-20T06:12:11;49.80;;;18.87;;
4889;SDS011;2459;42.268;23.112;2022-12-20T06:14:38;123.43;;;41.97;;
4889;SDS011;2459;42.268;23.112;2022-12-20T06:17:04;107.07;;;39.20;;
4889;SDS011;2459;42.268;23.112;2022-12-20T06:19:31;56.73;;;23.70;;
4889;SDS011;2459;42.268;23.112;2022-12-20T06:21:57;37.87;;;17.00;;
4889;SDS011;2459;42.268;23.112;2022-12-20T06:24:25;40.27;;;18.13;;
4889;SDS011;2459;42.268;23.112;2022-12-20T06:26:53;39.20;;;16.77;;
4889;SDS011;2459;42.268;23.112;2022-12-20T06:29:19;39.70;;;17.07;;
4889;SDS011;2459;42.268;23.112;2022-12-20T06:31:48;39.70;;;16.90;;
4889;SDS011;2459;42.268;23.112;2022-12-20T06:34:15;40.97;;;18.87;;
4889;SDS011;2459;42.268;23.112;2022-12-20T06:36:41;40.93;;;16.80;;
4889;SDS011;2459;42.268;23.112;2022-12-20T06:39:08;60.17;;;27.70;;
4889;SDS011;2459;42.268;23.112;2022-12-20T06:41:35;51.33;;;20.10;;
4889;SDS011;2459;42.268;23.112;2022-12-20T06:44:03;75.23;;;28.00;;
4889;SDS011;2459;42.268;23.112;2022-12-20T06:46:30;83.90;;;24.77;;
4889;SDS011;2459;42.268;23.112;2022-12-20T06:48:56;59.03;;;24.90;;
4889;SDS011;2459;42.268;23.112;2022-12-20T06:51:23;38.20;;;18.60;;
4889;SDS011;2459;42.268;23.112;2022-12-20T06:53:49;29.23;;;12.77;;
4889;SDS011;2459;42.268;23.112;2022-12-20T06:56:16;21.53;;;11.40;;
4889;SDS011;2459;42.268;23.112;2022-12-20T06:58:43;19.73;;;7.87;;
4889;SDS011;2459;42.268;23.112;2022-12-20T07:01:11;27.93;;;8.93;;
4889;SDS011;2459;42.268;23.112;2022-12-20T07:03:38;15.60;;;8.70;;
4889;SDS011;2459;42.268;23.112;2022-12-20T07:06:05;19.07;;;8.63;;
4889;SDS011;2459;42.268;23.112;2022-12-20T07:08:31;23.47;;;10.60;;
4889;SDS011;2459;42.268;23.112;2022-12-20T07:11:01;28.43;;;11.97;;
4889;SDS011;2459;42.268;23.112;2022-12-20T07:13:28;18.37;;;9.23;;
4889;SDS011;2459;42.268;23.112;2022-12-20T07:15:56;33.00;;;12.40;;
4889;SDS011;2459;42.268;23.112;2022-12-20T07:18:24;23.10;;;14.03;;
4889;SDS011;2459;42.268;23.112;2022-12-20T07:20:51;41.23;;;15.03;;
4889;SDS011;2459;42.268;23.112;2022-12-20T07:23:17;69.13;;;16.57;;
4889;SDS011;2459;42.268;23.112;2022-12-20T07:25:51;27.33;;;12.80;;
4889;SDS011;2459;42.268;23.112;2022-12-20T07:28:17;43.43;;;20.03;;
4889;SDS011;2459;42.268;23.112;2022-12-20T07:30:44;25.83;;;13.83;;
4889;SDS011;2459;42.268;23.112;2022-12-20T07:33:10;41.40;;;18.03;;
4889;SDS011;2459;42.268;23.112;2022-12-20T07:35:38;42.03;;;13.90;;
4889;SDS011;2459;42.268;23.112;2022-12-20T07:38:06;38.33;;;17.47;;
4889;SDS011;2459;42.268;23.112;2022-12-20T07:40:32;49.63;;;17.10;;
4889;SDS011;2459;42.268;23.112;2022-12-20T07:42:59;35.20;;;17.60;;
4889;SDS011;2459;42.268;23.112;2022-12-20T07:45:25;32.20;;;14.50;;
4889;SDS011;2459;42.268;23.112;2022-12-20T07:47:52;27.90;;;14.90;;
4889;SDS011;2459;42.268;23.112;2022-12-20T07:50:21;31.90;;;16.50;;
4889;SDS011;2459;42.268;23.112;2022-12-20T07:52:49;37.93;;;15.87;;
4889;SDS011;2459;42.268;23.112;2022-12-20T07:55:16;29.93;;;13.93;;
4889;SDS011;2459;42.268;23.112;2022-12-20T07:57:44;26.00;;;15.03;;
4889;SDS011;2459;42.268;23.112;2022-12-20T08:00:11;30.63;;;12.87;;
4889;SDS011;2459;42.268;23.112;2022-12-20T08:02:39;25.23;;;12.10;;
4889;SDS011;2459;42.268;23.112;2022-12-20T08:05:07;44.97;;;14.57;;
4889;SDS011;2459;42.268;23.112;2022-12-20T08:07:34;22.67;;;11.67;;
4889;SDS011;2459;42.268;23.112;2022-12-20T08:10:02;26.50;;;13.70;;
4889;SDS011;2459;42.268;23.112;2022-12-20T08:12:29;26.70;;;13.53;;
4889;SDS011;2459;42.268;23.112;2022-12-20T08:14:56;23.50;;;11.20;;
4889;SDS011;2459;42.268;23.112;2022-12-20T08:17:23;17.07;;;8.50;;
4889;SDS011;2459;42.268;23.112;2022-12-20T08:19:50;24.87;;;11.03;;
4889;SDS011;2459;42.268;23.112;2022-12-20T08:22:16;28.97;;;12.40;;
4889;SDS011;2459;42.268;23.112;2022-12-20T08:24:43;24.00;;;12.30;;
4889;SDS011;2459;42.268;23.112;2022-12-20T08:27:11;42.17;;;12.13;;
4889;SDS011;2459;42.268;23.112;2022-12-20T08:29:38;24.97;;;11.20;;
4889;SDS011;2459;42.268;23.112;2022-12-20T08:32:04;25.13;;;12.10;;
4889;SDS011;2459;42.268;23.112;2022-12-20T08:34:31;33.90;;;14.70;;
4889;SDS011;2459;42.268;23.112;2022-12-20T08:36:58;26.23;;;12.10;;
4889;SDS011;2459;42.268;23.112;2022-12-20T08:39:25;28.70;;;11.30;;
4889;SDS011;2459;42.268;23.112;2022-12-20T08:41:51;25.57;;;10.70;;
4889;SDS011;2459;42.268;23.112;2022-12-20T08:44:19;25.07;;;8.77;;
4889;SDS011;2459;42.268;23.112;2022-12-20T08:46:46;22.43;;;8.27;;
4889;SDS011;2459;42.268;23.112;2022-12-20T08:49:12;22.47;;;10.00;;
4889;SDS011;2459;42.268;23.112;2022-12-20T08:51:39;23.20;;;9.77;;
4889;SDS011;2459;42.268;23.112;2022-12-20T08:54:05;15.73;;;7.93;;
4889;SDS011;2459;42.268;23.112;2022-12-20T08:56:32;18.93;;;9.67;;
4889;SDS011;2459;42.268;23.112;2022-12-20T08:58:58;12.33;;;6.83;;
4889;SDS011;2459;42.268;23.112;2022-12-20T09:01:26;23.93;;;10.20;;
4889;SDS011;2459;42.268;23.112;2022-12-20T09:03:54;23.37;;;10.53;;
4889;SDS011;2459;42.268;23.112;2022-12-20T09:06:21;24.30;;;12.47;;
4889;SDS011;2459;42.268;23.112;2022-12-20T09:08:48;14.13;;;5.37;;
4889;SDS011;2459;42.268;23.112;2022-12-20T09:11:16;11.70;;;7.13;;
4889;SDS011;2459;42.268;23.112;2022-12-20T09:13:43;21.33;;;10.40;;
4889;SDS011;2459;42.268;23.112;2022-12-20T09:16:10;30.50;;;13.67;;
4889;SDS011;2459;42.268;23.112;2022-12-20T09:18:38;16.70;;;8.40;;
4889;SDS011;2459;42.268;23.112;2022-12-20T09:21:05;20.60;;;6.70;;
4889;SDS011;2459;42.268;23.112;2022-12-20T09:23:32;23.50;;;12.40;;
4889;SDS011;2459;42.268;23.112;2022-12-20T09:26:00;19.10;;;7.60;;
4889;SDS011;2459;42.268;23.112;2022-12-20T09:28:27;17.53;;;9.70;;
4889;SDS011;2459;42.268;23.112;2022-12-20T09:30:56;36.37;;;10.40;;
4889;SDS011;2459;42.268;23.112;2022-12-20T09:33:22;17.90;;;11.00;;
4889;SDS011;2459;42.268;23.112;2022-12-20T09:35:50;12.67;;;6.20;;
4889;SDS011;2459;42.268;23.112;2022-12-20T09:38:17;20.03;;;9.87;;
4889;SDS011;2459;42.268;23.112;2022-12-20T09:40:44;17.93;;;7.20;;
4889;SDS011;2459;42.268;23.112;2022-12-20T09:43:10;16.93;;;9.53;;
4889;SDS011;2459;42.268;23.112;2022-12-20T09:45:37;18.17;;;9.40;;
4889;SDS011;2459;42.268;23.112;2022-12-20T09:48:04;20.53;;;9.87;;
4889;SDS011;2459;42.268;23.112;2022-12-20T09:50:35;24.87;;;9.73;;
4889;SDS011;2459;42.268;23.112;2022-12-20T09:53:12;14.33;;;6.97;;
4889;SDS011;2459;42.268;23.112;2022-12-20T09:55:42;29.83;;;11.40;;
4889;SDS011;2459;42.268;23.112;2022-12-20T09:58:13;23.17;;;12.50;;
4889;SDS011;2459;42.268;23.112;2022-12-20T10:00:44;15.03;;;7.07;;
4889;SDS011;2459;42.268;23.112;2022-12-20T10:03:12;11.47;;;7.73;;
4889;SDS011;2459;42.268;23.112;2022-12-20T10:05:44;24.40;;;10.13;;
4889;SDS011;2459;42.268;23.112;2022-12-20T10:08:19;17.13;;;8.57;;
4889;SDS011;2459;42.268;23.112;2022-12-20T10:10:53;28.57;;;12.93;;
4889;SDS011;2459;42.268;23.112;2022-12-20T10:13:34;27.77;;;13.50;;
4889;SDS011;2459;42.268;23.112;2022-12-20T10:16:06;30.93;;;12.20;;
4889;SDS011;2459;42.268;23.112;2022-12-20T10:18:40;19.90;;;10.90;;
4889;SDS011;2459;42.268;23.112;2022-12-20T10:21:14;15.53;;;9.57;;
4889;SDS011;2459;42.268;23.112;2022-12-20T10:23:48;19.50;;;10.83;;
4889;SDS011;2459;42.268;23.112;2022-12-20T10:26:21;27.40;;;12.60;;
4889;SDS011;2459;42.268;23.112;2022-12-20T10:28:47;22.00;;;11.30;;
4889;SDS011;2459;42.268;23.112;2022-12-20T10:31:15;24.00;;;12.77;;
4889;SDS011;2459;42.268;23.112;2022-12-20T10:33:42;25.73;;;14.03;;
4889;SDS011;2459;42.268;23.112;2022-12-20T10:36:16;26.37;;;13.40;;
4889;SDS011;2459;42.268;23.112;2022-12-20T10:38:43;28.43;;;14.83;;
4889;SDS011;2459;42.268;23.112;2022-12-20T10:41:13;20.77;;;11.40;;
4889;SDS011;2459;42.268;23.112;2022-12-20T10:43:41;20.27;;;12.50;;
4889;SDS011;2459;42.268;23.112;2022-12-20T10:46:08;13.87;;;7.60;;
4889;SDS011;2459;42.268;23.112;2022-12-20T10:48:35;16.60;;;8.60;;
4889;SDS011;2459;42.268;23.112;2022-12-20T10:51:03;21.33;;;10.47;;
4889;SDS011;2459;42.268;23.112;2022-12-20T10:53:50;23.80;;;12.00;;
4889;SDS011;2459;42.268;23.112;2022-12-20T10:56:19;37.67;;;12.20;;
4889;SDS011;2459;42.268;23.112;2022-12-20T10:58:50;11.13;;;6.87;;
4889;SDS011;2459;42.268;23.112;2022-12-20T11:01:18;27.60;;;12.37;;
4889;SDS011;2459;42.268;23.112;2022-12-20T11:03:52;25.07;;;11.67;;
4889;SDS011;2459;42.268;23.112;2022-12-20T11:06:20;30.70;;;11.50;;
4889;SDS011;2459;42.268;23.112;2022-12-20T11:08:47;22.00;;;11.63;;
4889;SDS011;2459;42.268;23.112;2022-12-20T11:11:15;28.20;;;11.60;;
4889;SDS011;2459;42.268;23.112;2022-12-20T11:13:44;20.40;;;11.30;;
4889;SDS011;2459;42.268;23.112;2022-12-20T11:16:24;25.40;;;13.77;;
4889;SDS011;2459;42.268;23.112;2022-12-20T11:18:54;25.20;;;11.70;;
4889;SDS011;2459;42.268;23.112;2022-12-20T11:21:25;25.73;;;11.50;;
4889;SDS011;2459;42.268;23.112;2022-12-20T11:23:54;25.33;;;10.83;;
4889;SDS011;2459;42.268;23.112;2022-12-20T11:26:27;24.30;;;11.10;;
4889;SDS011;2459;42.268;23.112;2022-12-20T11:29:02;25.67;;;11.17;;
4889;SDS011;2459;42.268;23.112;2022-12-20T11:31:35;20.83;;;11.50;;
4889;SDS011;2459;42.268;23.112;2022-12-20T11:34:09;19.80;;;9.87;;
4889;SDS011;2459;42.268;23.112;2022-12-20T11:36:46;18.80;;;9.80;;
4889;SDS011;2459;42.268;23.112;2022-12-20T11:39:20;19.83;;;10.00;;
4889;SDS011;2459;42.268;23.112;2022-12-20T11:41:53;30.07;;;12.80;;
4889;SDS011;2459;42.268;23.112;2022-12-20T11:44:23;25.13;;;11.63;;
4889;SDS011;2459;42.268;23.112;2022-12-20T11:46:56;15.43;;;9.80;;
4889;SDS011;2459;42.268;23.112;2022-12-20T11:49:36;21.93;;;11.53;;
4889;SDS011;2459;42.268;23.112;2022-12-20T11:52:05;27.20;;;9.40;;
4889;SDS011;2459;42.268;23.112;2022-12-20T11:54:35;19.63;;;10.30;;
4889;SDS011;2459;42.268;23.112;2022-12-20T11:57:04;20.03;;;8.37;;
4889;SDS011;2459;42.268;23.112;2022-12-20T11:59:35;20.87;;;9.13;;
4889;SDS011;2459;42.268;23.112;2022-12-20T12:02:07;15.80;;;8.90;;
4889;SDS011;2459;42.268;23.112;2022-12-20T12:04:36;21.57;;;10.50;;
4889;SDS011;2459;42.268;23.112;2022-12-20T12:07:05;20.13;;;10.77;;
4889;SDS011;2459;42.268;23.112;2022-12-20T12:09:34;17.17;;;9.50;;
4889;SDS011;2459;42.268;23.112;2022-12-20T12:12:02;14.40;;;7.73;;
4889;SDS011;2459;42.268;23.112;2022-12-20T12:14:32;17.33;;;9.13;;
4889;SDS011;2459;42.268;23.112;2022-12-20T12:17:04;24.37;;;12.63;;
4889;SDS011;2459;42.268;23.112;2022-12-20T12:19:32;15.80;;;9.83;;
4889;SDS011;2459;42.268;23.112;2022-12-20T12:22:00;12.70;;;9.20;;
4889;SDS011;2459;42.268;23.112;2022-12-20T12:24:29;16.90;;;9.07;;
4889;SDS011;2459;42.268;23.112;2022-12-20T12:26:58;20.00;;;9.90;;
4889;SDS011;2459;42.268;23.112;2022-12-20T12:29:25;16.60;;;10.23;;
4889;SDS011;2459;42.268;23.112;2022-12-20T12:31:54;17.30;;;9.53;;
4889;SDS011;2459;42.268;23.112;2022-12-20T12:34:29;18.53;;;10.10;;
4889;SDS011;2459;42.268;23.112;2022-12-20T12:39:46;24.73;;;11.10;;
4889;SDS011;2459;42.268;23.112;2022-12-20T12:42:22;22.10;;;9.57;;
4889;SDS011;2459;42.268;23.112;2022-12-20T12:44:53;18.30;;;10.57;;
4889;SDS011;2459;42.268;23.112;2022-12-20T12:47:22;22.80;;;11.80;;
4889;SDS011;2459;42.268;23.112;2022-12-20T12:49:51;23.07;;;12.40;;
4889;SDS011;2459;42.268;23.112;2022-12-20T12:52:27;18.57;;;9.30;;
4889;SDS011;2459;42.268;23.112;2022-12-20T12:54:54;32.60;;;13.40;;
4889;SDS011;2459;42.268;23.112;2022-12-20T12:57:21;25.70;;;11.23;;
4889;SDS011;2459;42.268;23.112;2022-12-20T12:59:48;19.10;;;10.23;;
4889;SDS011;2459;42.268;23.112;2022-12-20T13:07:44;16.23;;;9.67;;
4889;SDS011;2459;42.268;23.112;2022-12-20T13:12:58;19.03;;;9.93;;
4889;SDS011;2459;42.268;23.112;2022-12-20T13:18:24;23.17;;;8.77;;
4889;SDS011;2459;42.268;23.112;2022-12-20T13:23:33;26.73;;;11.73;;
4889;SDS011;2459;42.268;23.112;2022-12-20T13:26:00;19.10;;;11.27;;
4889;SDS011;2459;42.268;23.112;2022-12-20T13:28:48;19.70;;;10.90;;
4889;SDS011;2459;42.268;23.112;2022-12-20T13:31:30;16.60;;;10.20;;
4889;SDS011;2459;42.268;23.112;2022-12-20T13:33:58;12.63;;;7.47;;
4889;SDS011;2459;42.268;23.112;2022-12-20T13:36:29;23.47;;;10.30;;
4889;SDS011;2459;42.268;23.112;2022-12-20T13:38:57;15.90;;;9.90;;
4889;SDS011;2459;42.268;23.112;2022-12-20T13:41:30;13.60;;;7.90;;
4889;SDS011;2459;42.268;23.112;2022-12-20T13:44:00;16.80;;;10.60;;
4889;SDS011;2459;42.268;23.112;2022-12-20T13:46:30;20.53;;;9.40;;
4889;SDS011;2459;42.268;23.112;2022-12-20T13:48:58;14.30;;;9.00;;
4889;SDS011;2459;42.268;23.112;2022-12-20T13:51:27;18.53;;;10.13;;
4889;SDS011;2459;42.268;23.112;2022-12-20T13:53:54;42.93;;;11.90;;
4889;SDS011;2459;42.268;23.112;2022-12-20T13:56:32;24.97;;;13.27;;
4889;SDS011;2459;42.268;23.112;2022-12-20T13:59:04;23.00;;;12.33;;
4889;SDS011;2459;42.268;23.112;2022-12-20T14:01:31;17.20;;;8.93;;
4889;SDS011;2459;42.268;23.112;2022-12-20T14:04:02;24.80;;;9.50;;
4889;SDS011;2459;42.268;23.112;2022-12-20T14:06:31;16.73;;;9.57;;
4889;SDS011;2459;42.268;23.112;2022-12-20T14:08:57;19.40;;;9.97;;
4889;SDS011;2459;42.268;23.112;2022-12-20T14:11:27;20.53;;;12.17;;
4889;SDS011;2459;42.268;23.112;2022-12-20T14:13:54;30.00;;;14.17;;
4889;SDS011;2459;42.268;23.112;2022-12-20T14:16:23;23.70;;;12.10;;
4889;SDS011;2459;42.268;23.112;2022-12-20T14:18:59;36.30;;;15.10;;
4889;SDS011;2459;42.268;23.112;2022-12-20T14:21:28;32.00;;;13.67;;
4889;SDS011;2459;42.268;23.112;2022-12-20T14:23:55;40.03;;;13.70;;
4889;SDS011;2459;42.268;23.112;2022-12-20T14:26:23;53.20;;;16.83;;
4889;SDS011;2459;42.268;23.112;2022-12-20T14:28:50;31.23;;;12.83;;
4889;SDS011;2459;42.268;23.112;2022-12-20T14:31:23;30.47;;;11.90;;
4889;SDS011;2459;42.268;23.112;2022-12-20T14:33:50;32.50;;;14.17;;
4889;SDS011;2459;42.268;23.112;2022-12-20T14:36:19;29.90;;;13.33;;
4889;SDS011;2459;42.268;23.112;2022-12-20T14:41:45;25.47;;;13.40;;
4889;SDS011;2459;42.268;23.112;2022-12-20T14:44:12;30.23;;;15.70;;
4889;SDS011;2459;42.268;23.112;2022-12-20T14:46:46;45.80;;;20.73;;
4889;SDS011;2459;42.268;23.112;2022-12-20T14:49:17;48.87;;;21.23;;
4889;SDS011;2459;42.268;23.112;2022-12-20T14:51:46;47.77;;;20.93;;
4889;SDS011;2459;42.268;23.112;2022-12-20T14:54:15;37.83;;;18.80;;
4889;SDS011;2459;42.268;23.112;2022-12-20T14:56:43;37.47;;;19.50;;
4889;SDS011;2459;42.268;23.112;2022-12-20T14:59:12;33.50;;;15.60;;
4889;SDS011;2459;42.268;23.112;2022-12-20T15:01:39;39.90;;;13.70;;
4889;SDS011;2459;42.268;23.112;2022-12-20T15:04:19;22.83;;;11.27;;
4889;SDS011;2459;42.268;23.112;2022-12-20T15:06:46;37.83;;;15.87;;
4889;SDS011;2459;42.268;23.112;2022-12-20T15:09:13;22.47;;;12.50;;